sensor_id;sensor_type;location;lat;lon;timestamp;P1;durP1;ratioP1;P2;durP2;ratioP2
57023;SDS011;42916;54.346;18.562;2023-06-14T00:01:53;5.70;;;2.60;;
57023;SDS011;42916;54.346;18.562;2023-06-14T00:04:19;5.40;;;2.90;;
57023;SDS011;42916;54.346;18.562;2023-06-14T00:06:46;4.80;;;2.50;;
57023;SDS011;42916;54.346;18.562;2023-06-14T00:09:12;5.30;;;2.60;;
57023;SDS011;42916;54.346;18.562;2023-06-14T00:11:39;6.30;;;3.00;;
57023;SDS011;42916;54.346;18.562;2023-06-14T00:14:06;5.80;;;3.30;;
57023;SDS011;42916;54.346;18.562;2023-06-14T00:16:32;6.10;;;2.80;;
57023;SDS011;42916;54.346;18.562;2023-06-14T00:19:01;4.90;;;2.80;;
57023;SDS011;42916;54.346;18.562;2023-06-14T00:21:31;6.20;;;2.80;;
57023;SDS011;42916;54.346;18.562;2023-06-14T00:23:57;5.40;;;3.00;;
57023;SDS011;42916;54.346;18.562;2023-06-14T00:26:24;7.00;;;3.00;;
57023;SDS011;42916;54.346;18.562;2023-06-14T00:28:52;10.40;;;3.00;;
57023;SDS011;42916;54.346;18.562;2023-06-14T00:31:19;4.20;;;2.40;;
57023;SDS011;42916;54.346;18.562;2023-06-14T00:33:46;5.30;;;2.50;;
57023;SDS011;42916;54.346;18.562;2023-06-14T00:36:12;7.60;;;2.80;;
57023;SDS011;42916;54.346;18.562;2023-06-14T00:38:38;7.00;;;2.80;;
57023;SDS011;42916;54.346;18.562;2023-06-14T00:41:04;6.10;;;2.70;;
57023;SDS011;42916;54.346;18.562;2023-06-14T00:43:30;6.20;;;2.90;;
57023;SDS011;42916;54.346;18.562;2023-06-14T00:45:57;5.80;;;2.80;;
57023;SDS011;42916;54.346;18.562;2023-06-14T00:48:23;5.20;;;3.00;;
57023;SDS011;42916;54.346;18.562;2023-06-14T00:50:50;5.70;;;2.80;;
57023;SDS011;42916;54.346;18.562;2023-06-14T00:53:18;3.10;;;2.40;;
57023;SDS011;42916;54.346;18.562;2023-06-14T00:55:46;5.40;;;2.70;;
57023;SDS011;42916;54.346;18.562;2023-06-14T00:58:13;6.00;;;3.00;;
57023;SDS011;42916;54.346;18.562;2023-06-14T01:00:41;5.20;;;2.80;;
57023;SDS011;42916;54.346;18.562;2023-06-14T01:03:07;6.10;;;2.90;;
57023;SDS011;42916;54.346;18.562;2023-06-14T01:05:38;5.90;;;3.10;;
57023;SDS011;42916;54.346;18.562;2023-06-14T01:10:53;4.30;;;2.70;;
57023;SDS011;42916;54.346;18.562;2023-06-14T01:13:36;5.80;;;2.90;;
57023;SDS011;42916;54.346;18.562;2023-06-14T01:16:05;4.70;;;2.70;;
57023;SDS011;42916;54.346;18.562;2023-06-14T01:18:33;6.20;;;2.30;;
57023;SDS011;42916;54.346;18.562;2023-06-14T01:21:01;6.70;;;3.00;;
57023;SDS011;42916;54.346;18.562;2023-06-14T01:23:31;4.20;;;2.70;;
57023;SDS011;42916;54.346;18.562;2023-06-14T01:25:59;5.00;;;2.80;;
57023;SDS011;42916;54.346;18.562;2023-06-14T01:28:30;6.80;;;2.90;;
57023;SDS011;42916;54.346;18.562;2023-06-14T01:31:00;4.30;;;2.80;;
57023;SDS011;42916;54.346;18.562;2023-06-14T01:33:32;4.00;;;2.80;;
57023;SDS011;42916;54.346;18.562;2023-06-14T01:36:01;5.20;;;2.80;;
57023;SDS011;42916;54.346;18.562;2023-06-14T01:38:29;5.10;;;3.00;;
57023;SDS011;42916;54.346;18.562;2023-06-14T01:40:58;5.70;;;2.60;;
57023;SDS011;42916;54.346;18.562;2023-06-14T01:43:25;5.80;;;2.60;;
57023;SDS011;42916;54.346;18.562;2023-06-14T01:45:53;5.80;;;3.10;;
57023;SDS011;42916;54.346;18.562;2023-06-14T01:48:20;6.40;;;2.60;;
57023;SDS011;42916;54.346;18.562;2023-06-14T01:50:50;4.50;;;2.70;;
57023;SDS011;42916;54.346;18.562;2023-06-14T01:53:17;4.70;;;2.90;;
57023;SDS011;42916;54.346;18.562;2023-06-14T01:55:43;5.40;;;3.10;;
57023;SDS011;42916;54.346;18.562;2023-06-14T01:58:11;4.30;;;2.90;;
57023;SDS011;42916;54.346;18.562;2023-06-14T02:00:37;4.70;;;3.10;;
57023;SDS011;42916;54.346;18.562;2023-06-14T02:03:03;7.00;;;2.80;;
57023;SDS011;42916;54.346;18.562;2023-06-14T02:05:30;5.20;;;3.10;;
57023;SDS011;42916;54.346;18.562;2023-06-14T02:07:56;4.70;;;2.70;;
57023;SDS011;42916;54.346;18.562;2023-06-14T02:10:22;4.30;;;3.00;;
57023;SDS011;42916;54.346;18.562;2023-06-14T02:12:48;3.90;;;2.60;;
57023;SDS011;42916;54.346;18.562;2023-06-14T02:15:15;3.90;;;3.00;;
57023;SDS011;42916;54.346;18.562;2023-06-14T02:17:45;4.60;;;3.30;;
57023;SDS011;42916;54.346;18.562;2023-06-14T02:20:13;4.80;;;3.10;;
57023;SDS011;42916;54.346;18.562;2023-06-14T02:22:40;4.50;;;3.10;;
57023;SDS011;42916;54.346;18.562;2023-06-14T02:25:07;9.10;;;3.40;;
57023;SDS011;42916;54.346;18.562;2023-06-14T02:27:34;7.00;;;2.90;;
57023;SDS011;42916;54.346;18.562;2023-06-14T02:30:00;4.10;;;2.70;;
57023;SDS011;42916;54.346;18.562;2023-06-14T02:32:27;5.30;;;3.00;;
57023;SDS011;42916;54.346;18.562;2023-06-14T02:34:53;6.70;;;3.20;;
57023;SDS011;42916;54.346;18.562;2023-06-14T02:37:20;6.30;;;3.30;;
57023;SDS011;42916;54.346;18.562;2023-06-14T02:39:46;7.10;;;3.10;;
57023;SDS011;42916;54.346;18.562;2023-06-14T02:42:12;6.80;;;3.20;;
57023;SDS011;42916;54.346;18.562;2023-06-14T02:44:39;5.20;;;3.30;;
57023;SDS011;42916;54.346;18.562;2023-06-14T02:47:05;3.80;;;2.50;;
57023;SDS011;42916;54.346;18.562;2023-06-14T02:49:31;5.70;;;3.20;;
57023;SDS011;42916;54.346;18.562;2023-06-14T02:51:58;7.00;;;2.90;;
57023;SDS011;42916;54.346;18.562;2023-06-14T02:54:24;5.60;;;3.30;;
57023;SDS011;42916;54.346;18.562;2023-06-14T02:56:51;5.60;;;3.90;;
57023;SDS011;42916;54.346;18.562;2023-06-14T02:59:17;4.80;;;3.10;;
57023;SDS011;42916;54.346;18.562;2023-06-14T03:01:43;5.50;;;2.90;;
57023;SDS011;42916;54.346;18.562;2023-06-14T03:04:11;4.20;;;3.10;;
57023;SDS011;42916;54.346;18.562;2023-06-14T03:06:39;8.10;;;3.70;;
57023;SDS011;42916;54.346;18.562;2023-06-14T03:09:05;4.20;;;2.70;;
57023;SDS011;42916;54.346;18.562;2023-06-14T03:11:32;7.50;;;3.70;;
57023;SDS011;42916;54.346;18.562;2023-06-14T03:13:59;7.40;;;4.10;;
57023;SDS011;42916;54.346;18.562;2023-06-14T03:16:26;6.70;;;3.70;;
57023;SDS011;42916;54.346;18.562;2023-06-14T03:18:55;8.00;;;4.40;;
57023;SDS011;42916;54.346;18.562;2023-06-14T03:21:23;7.00;;;3.70;;
57023;SDS011;42916;54.346;18.562;2023-06-14T03:23:50;6.40;;;3.30;;
57023;SDS011;42916;54.346;18.562;2023-06-14T03:26:17;5.20;;;3.20;;
57023;SDS011;42916;54.346;18.562;2023-06-14T03:28:47;6.00;;;3.20;;
57023;SDS011;42916;54.346;18.562;2023-06-14T03:31:17;7.00;;;4.20;;
57023;SDS011;42916;54.346;18.562;2023-06-14T03:33:45;8.30;;;3.80;;
57023;SDS011;42916;54.346;18.562;2023-06-14T03:36:11;8.20;;;4.30;;
57023;SDS011;42916;54.346;18.562;2023-06-14T03:38:38;6.90;;;3.70;;
57023;SDS011;42916;54.346;18.562;2023-06-14T03:41:04;6.50;;;3.80;;
57023;SDS011;42916;54.346;18.562;2023-06-14T03:43:31;6.50;;;3.50;;
57023;SDS011;42916;54.346;18.562;2023-06-14T03:45:59;7.20;;;3.90;;
57023;SDS011;42916;54.346;18.562;2023-06-14T03:48:26;7.70;;;3.70;;
57023;SDS011;42916;54.346;18.562;2023-06-14T03:50:53;6.80;;;3.50;;
57023;SDS011;42916;54.346;18.562;2023-06-14T03:53:20;7.90;;;3.80;;
57023;SDS011;42916;54.346;18.562;2023-06-14T03:58:18;8.60;;;3.80;;
57023;SDS011;42916;54.346;18.562;2023-06-14T04:00:45;5.00;;;3.70;;
57023;SDS011;42916;54.346;18.562;2023-06-14T04:03:11;6.40;;;3.20;;
57023;SDS011;42916;54.346;18.562;2023-06-14T04:05:39;7.70;;;3.60;;
57023;SDS011;42916;54.346;18.562;2023-06-14T04:08:08;4.70;;;3.50;;
57023;SDS011;42916;54.346;18.562;2023-06-14T04:10:35;7.10;;;3.30;;
57023;SDS011;42916;54.346;18.562;2023-06-14T04:13:02;6.10;;;3.70;;
57023;SDS011;42916;54.346;18.562;2023-06-14T04:15:28;11.80;;;4.00;;
57023;SDS011;42916;54.346;18.562;2023-06-14T04:17:56;5.10;;;3.80;;
57023;SDS011;42916;54.346;18.562;2023-06-14T04:20:23;6.70;;;4.20;;
57023;SDS011;42916;54.346;18.562;2023-06-14T04:22:51;6.70;;;4.20;;
57023;SDS011;42916;54.346;18.562;2023-06-14T04:25:18;8.60;;;4.10;;
57023;SDS011;42916;54.346;18.562;2023-06-14T04:27:46;8.50;;;4.10;;
57023;SDS011;42916;54.346;18.562;2023-06-14T04:30:13;5.00;;;3.60;;
57023;SDS011;42916;54.346;18.562;2023-06-14T04:32:45;8.40;;;3.90;;
57023;SDS011;42916;54.346;18.562;2023-06-14T04:35:12;8.20;;;4.20;;
57023;SDS011;42916;54.346;18.562;2023-06-14T04:37:41;8.80;;;4.20;;
57023;SDS011;42916;54.346;18.562;2023-06-14T04:40:09;12.30;;;4.60;;
57023;SDS011;42916;54.346;18.562;2023-06-14T04:42:37;10.00;;;4.30;;
57023;SDS011;42916;54.346;18.562;2023-06-14T04:45:06;7.70;;;3.90;;
57023;SDS011;42916;54.346;18.562;2023-06-14T04:47:33;6.60;;;3.80;;
57023;SDS011;42916;54.346;18.562;2023-06-14T04:50:00;9.50;;;3.80;;
57023;SDS011;42916;54.346;18.562;2023-06-14T04:52:30;9.10;;;4.10;;
57023;SDS011;42916;54.346;18.562;2023-06-14T04:54:57;7.50;;;3.80;;
57023;SDS011;42916;54.346;18.562;2023-06-14T04:57:24;9.20;;;4.50;;
57023;SDS011;42916;54.346;18.562;2023-06-14T04:59:52;9.70;;;4.60;;
57023;SDS011;42916;54.346;18.562;2023-06-14T05:02:24;7.60;;;3.80;;
57023;SDS011;42916;54.346;18.562;2023-06-14T05:04:52;9.60;;;4.30;;
57023;SDS011;42916;54.346;18.562;2023-06-14T05:07:19;6.10;;;4.00;;
57023;SDS011;42916;54.346;18.562;2023-06-14T05:09:47;10.00;;;4.10;;
57023;SDS011;42916;54.346;18.562;2023-06-14T05:12:14;8.90;;;4.40;;
57023;SDS011;42916;54.346;18.562;2023-06-14T05:14:44;7.50;;;4.20;;
57023;SDS011;42916;54.346;18.562;2023-06-14T05:17:11;7.50;;;4.10;;
57023;SDS011;42916;54.346;18.562;2023-06-14T05:19:37;9.40;;;4.90;;
57023;SDS011;42916;54.346;18.562;2023-06-14T05:22:03;9.00;;;4.40;;
57023;SDS011;42916;54.346;18.562;2023-06-14T05:24:30;11.20;;;4.60;;
57023;SDS011;42916;54.346;18.562;2023-06-14T05:26:56;10.40;;;4.10;;
57023;SDS011;42916;54.346;18.562;2023-06-14T05:29:22;11.20;;;5.60;;
57023;SDS011;42916;54.346;18.562;2023-06-14T05:31:48;14.70;;;5.90;;
57023;SDS011;42916;54.346;18.562;2023-06-14T05:34:14;10.70;;;5.50;;
57023;SDS011;42916;54.346;18.562;2023-06-14T05:36:41;15.30;;;6.00;;
57023;SDS011;42916;54.346;18.562;2023-06-14T05:39:07;12.50;;;6.00;;
57023;SDS011;42916;54.346;18.562;2023-06-14T05:41:34;14.30;;;6.60;;
57023;SDS011;42916;54.346;18.562;2023-06-14T05:44:00;14.30;;;6.10;;
57023;SDS011;42916;54.346;18.562;2023-06-14T05:46:27;19.30;;;7.40;;
57023;SDS011;42916;54.346;18.562;2023-06-14T05:48:54;15.80;;;6.50;;
57023;SDS011;42916;54.346;18.562;2023-06-14T05:51:21;14.70;;;6.50;;
57023;SDS011;42916;54.346;18.562;2023-06-14T05:53:47;15.90;;;6.10;;
57023;SDS011;42916;54.346;18.562;2023-06-14T05:56:14;13.70;;;6.60;;
57023;SDS011;42916;54.346;18.562;2023-06-14T05:58:41;17.10;;;7.00;;
57023;SDS011;42916;54.346;18.562;2023-06-14T06:01:07;15.40;;;6.80;;
57023;SDS011;42916;54.346;18.562;2023-06-14T06:03:33;13.90;;;7.20;;
57023;SDS011;42916;54.346;18.562;2023-06-14T06:06:00;11.90;;;6.00;;
57023;SDS011;42916;54.346;18.562;2023-06-14T06:08:26;15.60;;;6.50;;
57023;SDS011;42916;54.346;18.562;2023-06-14T06:10:53;14.70;;;6.40;;
57023;SDS011;42916;54.346;18.562;2023-06-14T06:13:19;19.50;;;6.40;;
57023;SDS011;42916;54.346;18.562;2023-06-14T06:15:45;15.10;;;6.40;;
57023;SDS011;42916;54.346;18.562;2023-06-14T06:18:12;14.10;;;6.70;;
57023;SDS011;42916;54.346;18.562;2023-06-14T06:20:38;14.00;;;5.90;;
57023;SDS011;42916;54.346;18.562;2023-06-14T06:23:04;13.90;;;6.30;;
57023;SDS011;42916;54.346;18.562;2023-06-14T06:25:30;13.90;;;6.40;;
57023;SDS011;42916;54.346;18.562;2023-06-14T06:27:57;12.40;;;7.40;;
57023;SDS011;42916;54.346;18.562;2023-06-14T06:30:24;13.60;;;6.10;;
57023;SDS011;42916;54.346;18.562;2023-06-14T06:32:51;13.00;;;6.30;;
57023;SDS011;42916;54.346;18.562;2023-06-14T06:35:17;14.40;;;6.70;;
57023;SDS011;42916;54.346;18.562;2023-06-14T06:37:43;15.80;;;7.20;;
57023;SDS011;42916;54.346;18.562;2023-06-14T06:40:10;12.60;;;7.10;;
57023;SDS011;42916;54.346;18.562;2023-06-14T06:42:36;15.00;;;7.30;;
57023;SDS011;42916;54.346;18.562;2023-06-14T06:45:04;14.50;;;7.30;;
57023;SDS011;42916;54.346;18.562;2023-06-14T06:47:31;15.10;;;6.90;;
57023;SDS011;42916;54.346;18.562;2023-06-14T06:49:57;14.90;;;7.10;;
57023;SDS011;42916;54.346;18.562;2023-06-14T06:52:23;13.90;;;7.70;;
57023;SDS011;42916;54.346;18.562;2023-06-14T06:54:49;17.60;;;7.00;;
57023;SDS011;42916;54.346;18.562;2023-06-14T06:57:20;13.50;;;6.90;;
57023;SDS011;42916;54.346;18.562;2023-06-14T06:59:48;15.20;;;6.90;;
57023;SDS011;42916;54.346;18.562;2023-06-14T07:02:15;12.80;;;6.60;;
57023;SDS011;42916;54.346;18.562;2023-06-14T07:04:42;13.10;;;6.20;;
57023;SDS011;42916;54.346;18.562;2023-06-14T07:07:08;14.50;;;7.00;;
57023;SDS011;42916;54.346;18.562;2023-06-14T07:09:35;17.00;;;7.00;;
57023;SDS011;42916;54.346;18.562;2023-06-14T07:12:02;12.00;;;6.70;;
57023;SDS011;42916;54.346;18.562;2023-06-14T07:14:28;14.50;;;6.10;;
57023;SDS011;42916;54.346;18.562;2023-06-14T07:16:55;13.70;;;6.40;;
57023;SDS011;42916;54.346;18.562;2023-06-14T07:19:22;11.60;;;5.40;;
57023;SDS011;42916;54.346;18.562;2023-06-14T07:21:48;11.00;;;5.80;;
57023;SDS011;42916;54.346;18.562;2023-06-14T07:24:14;14.20;;;5.60;;
57023;SDS011;42916;54.346;18.562;2023-06-14T07:26:41;11.70;;;5.90;;
57023;SDS011;42916;54.346;18.562;2023-06-14T07:29:07;15.20;;;6.10;;
57023;SDS011;42916;54.346;18.562;2023-06-14T07:31:33;9.90;;;5.50;;
57023;SDS011;42916;54.346;18.562;2023-06-14T07:33:59;14.90;;;5.70;;
57023;SDS011;42916;54.346;18.562;2023-06-14T07:36:25;9.50;;;5.30;;
57023;SDS011;42916;54.346;18.562;2023-06-14T07:38:52;12.90;;;5.50;;
57023;SDS011;42916;54.346;18.562;2023-06-14T07:41:18;15.00;;;5.50;;
57023;SDS011;42916;54.346;18.562;2023-06-14T07:43:44;12.00;;;5.30;;
57023;SDS011;42916;54.346;18.562;2023-06-14T07:46:10;14.00;;;5.60;;
57023;SDS011;42916;54.346;18.562;2023-06-14T07:48:37;10.40;;;5.50;;
57023;SDS011;42916;54.346;18.562;2023-06-14T07:51:03;8.50;;;5.20;;
57023;SDS011;42916;54.346;18.562;2023-06-14T07:53:29;7.90;;;4.90;;
57023;SDS011;42916;54.346;18.562;2023-06-14T07:55:58;8.40;;;4.20;;
57023;SDS011;42916;54.346;18.562;2023-06-14T07:58:25;10.20;;;5.10;;
57023;SDS011;42916;54.346;18.562;2023-06-14T08:00:52;10.00;;;4.90;;
57023;SDS011;42916;54.346;18.562;2023-06-14T08:03:18;7.90;;;4.60;;
57023;SDS011;42916;54.346;18.562;2023-06-14T08:05:45;8.90;;;4.80;;
57023;SDS011;42916;54.346;18.562;2023-06-14T08:08:11;9.60;;;5.00;;
57023;SDS011;42916;54.346;18.562;2023-06-14T08:10:38;9.60;;;5.00;;
57023;SDS011;42916;54.346;18.562;2023-06-14T08:13:04;11.80;;;5.40;;
57023;SDS011;42916;54.346;18.562;2023-06-14T08:15:31;10.50;;;4.90;;
57023;SDS011;42916;54.346;18.562;2023-06-14T08:17:57;11.50;;;4.90;;
57023;SDS011;42916;54.346;18.562;2023-06-14T08:20:25;13.90;;;5.20;;
57023;SDS011;42916;54.346;18.562;2023-06-14T08:22:51;7.20;;;4.80;;
57023;SDS011;42916;54.346;18.562;2023-06-14T08:25:20;10.20;;;5.40;;
57023;SDS011;42916;54.346;18.562;2023-06-14T08:27:47;11.90;;;5.30;;
57023;SDS011;42916;54.346;18.562;2023-06-14T08:30:13;10.10;;;5.40;;
57023;SDS011;42916;54.346;18.562;2023-06-14T08:32:39;9.60;;;5.60;;
57023;SDS011;42916;54.346;18.562;2023-06-14T08:35:06;11.80;;;4.60;;
57023;SDS011;42916;54.346;18.562;2023-06-14T08:37:33;10.40;;;6.20;;
57023;SDS011;42916;54.346;18.562;2023-06-14T08:42:30;17.40;;;6.40;;
57023;SDS011;42916;54.346;18.562;2023-06-14T08:44:58;11.50;;;6.60;;
57023;SDS011;42916;54.346;18.562;2023-06-14T08:47:25;9.90;;;5.90;;
57023;SDS011;42916;54.346;18.562;2023-06-14T08:49:52;11.90;;;6.50;;
57023;SDS011;42916;54.346;18.562;2023-06-14T08:52:22;12.20;;;6.10;;
57023;SDS011;42916;54.346;18.562;2023-06-14T08:54:56;16.90;;;6.80;;
57023;SDS011;42916;54.346;18.562;2023-06-14T08:57:23;11.70;;;6.30;;
57023;SDS011;42916;54.346;18.562;2023-06-14T08:59:51;14.80;;;6.30;;
57023;SDS011;42916;54.346;18.562;2023-06-14T09:02:18;15.10;;;7.50;;
57023;SDS011;42916;54.346;18.562;2023-06-14T09:04:45;19.10;;;7.20;;
57023;SDS011;42916;54.346;18.562;2023-06-14T09:07:11;18.80;;;7.10;;
57023;SDS011;42916;54.346;18.562;2023-06-14T09:09:39;17.80;;;7.20;;
57023;SDS011;42916;54.346;18.562;2023-06-14T09:12:08;12.50;;;6.80;;
57023;SDS011;42916;54.346;18.562;2023-06-14T09:14:36;17.00;;;7.30;;
57023;SDS011;42916;54.346;18.562;2023-06-14T09:17:05;16.90;;;7.80;;
57023;SDS011;42916;54.346;18.562;2023-06-14T09:19:32;17.80;;;8.10;;
57023;SDS011;42916;54.346;18.562;2023-06-14T09:21:59;17.20;;;8.50;;
57023;SDS011;42916;54.346;18.562;2023-06-14T09:24:26;17.90;;;8.00;;
57023;SDS011;42916;54.346;18.562;2023-06-14T09:26:52;19.60;;;8.80;;
57023;SDS011;42916;54.346;18.562;2023-06-14T09:29:19;20.30;;;10.40;;
57023;SDS011;42916;54.346;18.562;2023-06-14T09:31:46;30.40;;;12.40;;
57023;SDS011;42916;54.346;18.562;2023-06-14T09:34:13;25.50;;;13.20;;
57023;SDS011;42916;54.346;18.562;2023-06-14T09:36:39;36.60;;;14.90;;
57023;SDS011;42916;54.346;18.562;2023-06-14T09:39:08;31.80;;;14.30;;
57023;SDS011;42916;54.346;18.562;2023-06-14T09:41:38;23.50;;;11.20;;
57023;SDS011;42916;54.346;18.562;2023-06-14T09:44:09;26.90;;;12.20;;
57023;SDS011;42916;54.346;18.562;2023-06-14T09:46:37;20.00;;;10.10;;
57023;SDS011;42916;54.346;18.562;2023-06-14T09:49:04;22.90;;;10.30;;
57023;SDS011;42916;54.346;18.562;2023-06-14T09:51:31;20.60;;;9.90;;
57023;SDS011;42916;54.346;18.562;2023-06-14T09:54:01;16.20;;;8.10;;
57023;SDS011;42916;54.346;18.562;2023-06-14T09:56:31;19.10;;;7.80;;
57023;SDS011;42916;54.346;18.562;2023-06-14T09:59:00;14.50;;;7.20;;
57023;SDS011;42916;54.346;18.562;2023-06-14T10:01:31;17.30;;;8.50;;
57023;SDS011;42916;54.346;18.562;2023-06-14T10:04:02;16.60;;;7.30;;
57023;SDS011;42916;54.346;18.562;2023-06-14T10:06:34;11.60;;;6.40;;
57023;SDS011;42916;54.346;18.562;2023-06-14T10:09:03;13.60;;;6.80;;
57023;SDS011;42916;54.346;18.562;2023-06-14T10:11:33;10.20;;;5.70;;
57023;SDS011;42916;54.346;18.562;2023-06-14T10:14:01;11.20;;;6.60;;
57023;SDS011;42916;54.346;18.562;2023-06-14T10:24:56;10.30;;;5.10;;
57023;SDS011;42916;54.346;18.562;2023-06-14T10:27:22;10.20;;;5.00;;
57023;SDS011;42916;54.346;18.562;2023-06-14T10:32:18;11.20;;;4.70;;
57023;SDS011;42916;54.346;18.562;2023-06-14T10:34:49;8.90;;;4.80;;
57023;SDS011;42916;54.346;18.562;2023-06-14T10:37:19;11.00;;;4.50;;
57023;SDS011;42916;54.346;18.562;2023-06-14T10:39:45;8.50;;;4.10;;
57023;SDS011;42916;54.346;18.562;2023-06-14T10:42:12;7.80;;;3.90;;
57023;SDS011;42916;54.346;18.562;2023-06-14T10:49:57;10.20;;;4.90;;
57023;SDS011;42916;54.346;18.562;2023-06-14T10:52:29;9.90;;;4.90;;
57023;SDS011;42916;54.346;18.562;2023-06-14T10:57:41;7.50;;;3.80;;
57023;SDS011;42916;54.346;18.562;2023-06-14T11:00:09;8.50;;;4.90;;
57023;SDS011;42916;54.346;18.562;2023-06-14T11:11:00;22.70;;;9.60;;
57023;SDS011;42916;54.346;18.562;2023-06-14T11:13:32;17.20;;;6.90;;
57023;SDS011;42916;54.346;18.562;2023-06-14T11:15:59;15.10;;;6.70;;
57023;SDS011;42916;54.346;18.562;2023-06-14T11:18:25;12.50;;;6.30;;
57023;SDS011;42916;54.346;18.562;2023-06-14T11:20:53;16.20;;;6.80;;
57023;SDS011;42916;54.346;18.562;2023-06-14T11:23:20;14.10;;;7.00;;
57023;SDS011;42916;54.346;18.562;2023-06-14T11:25:53;12.30;;;6.20;;
57023;SDS011;42916;54.346;18.562;2023-06-14T11:28:19;12.10;;;6.10;;
57023;SDS011;42916;54.346;18.562;2023-06-14T11:30:47;7.30;;;4.90;;
57023;SDS011;42916;54.346;18.562;2023-06-14T11:33:17;10.00;;;4.10;;
57023;SDS011;42916;54.346;18.562;2023-06-14T11:35:46;6.90;;;4.10;;
57023;SDS011;42916;54.346;18.562;2023-06-14T11:38:12;8.90;;;3.90;;
57023;SDS011;42916;54.346;18.562;2023-06-14T11:40:39;7.60;;;3.90;;
57023;SDS011;42916;54.346;18.562;2023-06-14T11:43:05;7.20;;;3.90;;
57023;SDS011;42916;54.346;18.562;2023-06-14T11:45:31;6.30;;;4.20;;
57023;SDS011;42916;54.346;18.562;2023-06-14T11:47:58;7.70;;;4.30;;
57023;SDS011;42916;54.346;18.562;2023-06-14T11:50:25;10.10;;;4.30;;
57023;SDS011;42916;54.346;18.562;2023-06-14T11:52:55;6.10;;;3.90;;
57023;SDS011;42916;54.346;18.562;2023-06-14T11:55:35;7.40;;;3.40;;
57023;SDS011;42916;54.346;18.562;2023-06-14T11:58:02;3.90;;;3.20;;
57023;SDS011;42916;54.346;18.562;2023-06-14T12:00:29;6.60;;;3.30;;
57023;SDS011;42916;54.346;18.562;2023-06-14T12:02:56;6.30;;;3.50;;
57023;SDS011;42916;54.346;18.562;2023-06-14T12:05:23;6.60;;;3.30;;
57023;SDS011;42916;54.346;18.562;2023-06-14T12:07:50;7.20;;;3.60;;
57023;SDS011;42916;54.346;18.562;2023-06-14T12:10:19;6.50;;;3.20;;
57023;SDS011;42916;54.346;18.562;2023-06-14T12:12:45;6.70;;;2.90;;
57023;SDS011;42916;54.346;18.562;2023-06-14T12:15:11;5.10;;;3.00;;
57023;SDS011;42916;54.346;18.562;2023-06-14T12:17:38;7.90;;;3.40;;
57023;SDS011;42916;54.346;18.562;2023-06-14T12:20:11;7.00;;;3.10;;
57023;SDS011;42916;54.346;18.562;2023-06-14T12:22:55;6.80;;;3.30;;
57023;SDS011;42916;54.346;18.562;2023-06-14T12:25:30;5.10;;;3.10;;
57023;SDS011;42916;54.346;18.562;2023-06-14T12:27:58;8.20;;;3.10;;
57023;SDS011;42916;54.346;18.562;2023-06-14T12:30:25;5.90;;;3.20;;
57023;SDS011;42916;54.346;18.562;2023-06-14T12:32:52;8.00;;;3.00;;
57023;SDS011;42916;54.346;18.562;2023-06-14T12:35:18;4.80;;;3.00;;
57023;SDS011;42916;54.346;18.562;2023-06-14T12:37:45;8.50;;;3.00;;
57023;SDS011;42916;54.346;18.562;2023-06-14T12:40:12;6.30;;;3.10;;
57023;SDS011;42916;54.346;18.562;2023-06-14T12:42:38;5.60;;;2.80;;
57023;SDS011;42916;54.346;18.562;2023-06-14T12:45:05;8.20;;;2.80;;
57023;SDS011;42916;54.346;18.562;2023-06-14T12:47:32;4.00;;;2.90;;
57023;SDS011;42916;54.346;18.562;2023-06-14T12:49:58;5.00;;;2.90;;
57023;SDS011;42916;54.346;18.562;2023-06-14T12:52:24;8.60;;;3.20;;
57023;SDS011;42916;54.346;18.562;2023-06-14T12:54:50;5.20;;;3.00;;
57023;SDS011;42916;54.346;18.562;2023-06-14T12:57:17;9.70;;;3.00;;
57023;SDS011;42916;54.346;18.562;2023-06-14T12:59:43;7.20;;;2.80;;
57023;SDS011;42916;54.346;18.562;2023-06-14T13:04:43;5.00;;;2.90;;
57023;SDS011;42916;54.346;18.562;2023-06-14T13:07:10;6.90;;;3.20;;
57023;SDS011;42916;54.346;18.562;2023-06-14T13:09:37;6.40;;;3.00;;
57023;SDS011;42916;54.346;18.562;2023-06-14T13:12:03;6.50;;;2.70;;
57023;SDS011;42916;54.346;18.562;2023-06-14T13:14:30;6.40;;;2.90;;
57023;SDS011;42916;54.346;18.562;2023-06-14T13:16:56;6.60;;;2.70;;
57023;SDS011;42916;54.346;18.562;2023-06-14T13:19:22;6.50;;;3.10;;
57023;SDS011;42916;54.346;18.562;2023-06-14T13:21:48;13.40;;;3.10;;
57023;SDS011;42916;54.346;18.562;2023-06-14T13:24:15;8.10;;;2.90;;
57023;SDS011;42916;54.346;18.562;2023-06-14T13:26:41;7.20;;;3.40;;
57023;SDS011;42916;54.346;18.562;2023-06-14T13:29:07;9.60;;;2.70;;
57023;SDS011;42916;54.346;18.562;2023-06-14T13:31:33;6.50;;;2.70;;
57023;SDS011;42916;54.346;18.562;2023-06-14T13:33:59;3.90;;;2.70;;
57023;SDS011;42916;54.346;18.562;2023-06-14T13:36:26;5.70;;;2.70;;
57023;SDS011;42916;54.346;18.562;2023-06-14T13:38:52;5.60;;;2.90;;
57023;SDS011;42916;54.346;18.562;2023-06-14T13:41:20;3.50;;;2.50;;
57023;SDS011;42916;54.346;18.562;2023-06-14T13:43:46;8.40;;;3.20;;
57023;SDS011;42916;54.346;18.562;2023-06-14T13:46:13;5.70;;;2.80;;
57023;SDS011;42916;54.346;18.562;2023-06-14T13:48:39;5.50;;;2.80;;
57023;SDS011;42916;54.346;18.562;2023-06-14T13:51:05;5.50;;;3.00;;
57023;SDS011;42916;54.346;18.562;2023-06-14T13:53:31;7.10;;;2.90;;
57023;SDS011;42916;54.346;18.562;2023-06-14T13:55:57;6.80;;;3.10;;
57023;SDS011;42916;54.346;18.562;2023-06-14T13:58:24;5.70;;;3.10;;
57023;SDS011;42916;54.346;18.562;2023-06-14T14:00:51;5.80;;;3.30;;
57023;SDS011;42916;54.346;18.562;2023-06-14T14:03:17;4.20;;;3.10;;
57023;SDS011;42916;54.346;18.562;2023-06-14T14:05:45;9.60;;;3.30;;
57023;SDS011;42916;54.346;18.562;2023-06-14T14:08:11;8.10;;;3.40;;
57023;SDS011;42916;54.346;18.562;2023-06-14T14:10:38;7.30;;;3.40;;
57023;SDS011;42916;54.346;18.562;2023-06-14T14:13:04;5.10;;;2.70;;
57023;SDS011;42916;54.346;18.562;2023-06-14T14:15:30;6.70;;;2.90;;
57023;SDS011;42916;54.346;18.562;2023-06-14T14:17:58;5.70;;;3.00;;
57023;SDS011;42916;54.346;18.562;2023-06-14T14:20:24;4.80;;;3.00;;
57023;SDS011;42916;54.346;18.562;2023-06-14T14:22:50;6.60;;;2.80;;
57023;SDS011;42916;54.346;18.562;2023-06-14T14:25:16;7.70;;;3.00;;
57023;SDS011;42916;54.346;18.562;2023-06-14T14:27:42;11.30;;;3.10;;
57023;SDS011;42916;54.346;18.562;2023-06-14T14:30:09;5.00;;;3.10;;
57023;SDS011;42916;54.346;18.562;2023-06-14T14:32:35;6.90;;;3.40;;
57023;SDS011;42916;54.346;18.562;2023-06-14T14:35:01;6.10;;;3.00;;
57023;SDS011;42916;54.346;18.562;2023-06-14T14:37:28;7.50;;;3.60;;
57023;SDS011;42916;54.346;18.562;2023-06-14T14:39:54;7.00;;;2.70;;
57023;SDS011;42916;54.346;18.562;2023-06-14T14:42:20;5.60;;;3.00;;
57023;SDS011;42916;54.346;18.562;2023-06-14T14:44:46;3.90;;;2.80;;
57023;SDS011;42916;54.346;18.562;2023-06-14T14:47:12;5.60;;;3.00;;
57023;SDS011;42916;54.346;18.562;2023-06-14T14:49:38;5.50;;;2.80;;
57023;SDS011;42916;54.346;18.562;2023-06-14T14:52:05;5.80;;;3.10;;
57023;SDS011;42916;54.346;18.562;2023-06-14T14:54:34;8.40;;;3.30;;
57023;SDS011;42916;54.346;18.562;2023-06-14T14:57:03;9.20;;;3.10;;
57023;SDS011;42916;54.346;18.562;2023-06-14T14:59:29;4.40;;;2.80;;
57023;SDS011;42916;54.346;18.562;2023-06-14T15:01:56;6.50;;;2.90;;
57023;SDS011;42916;54.346;18.562;2023-06-14T15:04:22;3.20;;;2.40;;
57023;SDS011;42916;54.346;18.562;2023-06-14T15:06:48;7.10;;;3.20;;